sensor_id;sensor_type;location;lat;lon;timestamp;temperature;humidity
46159;DHT22;31888;44.512;26.104;2023-04-03T00:00:33;9.70;99.90
46159;DHT22;31888;44.512;26.104;2023-04-03T00:02:58;9.70;99.90
46159;DHT22;31888;44.512;26.104;2023-04-03T00:05:23;9.70;99.90
46159;DHT22;31888;44.512;26.104;2023-04-03T00:07:48;9.70;99.90
46159;DHT22;31888;44.512;26.104;2023-04-03T00:10:14;9.70;99.90
46159;DHT22;31888;44.512;26.104;2023-04-03T00:12:41;9.70;99.90
46159;DHT22;31888;44.512;26.104;2023-04-03T00:15:06;9.70;99.90
46159;DHT22;31888;44.512;26.104;2023-04-03T00:17:32;9.60;99.90
46159;DHT22;31888;44.512;26.104;2023-04-03T00:19:57;9.60;99.90
46159;DHT22;31888;44.512;26.104;2023-04-03T00:22:22;9.60;99.90
46159;DHT22;31888;44.512;26.104;2023-04-03T00:24:46;9.60;99.90
46159;DHT22;31888;44.512;26.104;2023-04-03T00:27:11;9.50;99.90
46159;DHT22;31888;44.512;26.104;2023-04-03T00:29:36;9.60;99.90
46159;DHT22;31888;44.512;26.104;2023-04-03T00:32:00;9.70;99.90
46159;DHT22;31888;44.512;26.104;2023-04-03T00:34:26;9.70;99.90
46159;DHT22;31888;44.512;26.104;2023-04-03T00:36:51;9.70;99.90
46159;DHT22;31888;44.512;26.104;2023-04-03T00:39:16;9.70;99.90
46159;DHT22;31888;44.512;26.104;2023-04-03T00:41:41;9.70;99.90
46159;DHT22;31888;44.512;26.104;2023-04-03T00:44:23;9.70;99.90
46159;DHT22;31888;44.512;26.104;2023-04-03T00:47:09;9.80;99.90
46159;DHT22;31888;44.512;26.104;2023-04-03T00:49:37;9.70;99.90
46159;DHT22;31888;44.512;26.104;2023-04-03T00:52:03;9.70;99.90
46159;DHT22;31888;44.512;26.104;2023-04-03T00:54:29;9.60;99.90
46159;DHT22;31888;44.512;26.104;2023-04-03T00:56:56;9.60;99.90
46159;DHT22;31888;44.512;26.104;2023-04-03T00:59:24;9.50;99.90
46159;DHT22;31888;44.512;26.104;2023-04-03T01:01:50;9.50;99.90
46159;DHT22;31888;44.512;26.104;2023-04-03T01:04:26;9.60;99.90
46159;DHT22;31888;44.512;26.104;2023-04-03T01:06:55;9.60;99.90
46159;DHT22;31888;44.512;26.104;2023-04-03T01:09:20;9.60;99.90
46159;DHT22;31888;44.512;26.104;2023-04-03T01:11:46;9.60;99.90
46159;DHT22;31888;44.512;26.104;2023-04-03T01:14:10;9.60;99.90
46159;DHT22;31888;44.512;26.104;2023-04-03T01:16:35;9.60;99.90
46159;DHT22;31888;44.512;26.104;2023-04-03T01:19:01;9.60;99.90
46159;DHT22;31888;44.512;26.104;2023-04-03T01:22:02;9.60;99.90
46159;DHT22;31888;44.512;26.104;2023-04-03T01:24:35;9.60;99.90
46159;DHT22;31888;44.512;26.104;2023-04-03T01:27:06;9.50;99.90
46159;DHT22;31888;44.512;26.104;2023-04-03T01:29:32;9.50;99.90
46159;DHT22;31888;44.512;26.104;2023-04-03T01:31:59;9.40;99.90
46159;DHT22;31888;44.512;26.104;2023-04-03T01:34:25;9.40;99.90
46159;DHT22;31888;44.512;26.104;2023-04-03T01:36:51;9.40;99.90
46159;DHT22;31888;44.512;26.104;2023-04-03T01:39:17;9.40;99.90
46159;DHT22;31888;44.512;26.104;2023-04-03T01:41:41;9.40;99.90
46159;DHT22;31888;44.512;26.104;2023-04-03T01:44:11;9.30;99.90
46159;DHT22;31888;44.512;26.104;2023-04-03T01:46:36;9.30;99.90
46159;DHT22;31888;44.512;26.104;2023-04-03T01:49:04;9.20;99.90
46159;DHT22;31888;44.512;26.104;2023-04-03T01:51:28;9.20;99.90
46159;DHT22;31888;44.512;26.104;2023-04-03T01:53:53;9.10;99.90
46159;DHT22;31888;44.512;26.104;2023-04-03T01:56:18;9.00;99.90
46159;DHT22;31888;44.512;26.104;2023-04-03T01:58:43;9.00;99.90
46159;DHT22;31888;44.512;26.104;2023-04-03T02:01:08;9.00;99.90
46159;DHT22;31888;44.512;26.104;2023-04-03T02:03:32;9.00;99.90
46159;DHT22;31888;44.512;26.104;2023-04-03T02:05:59;8.90;99.90
46159;DHT22;31888;44.512;26.104;2023-04-03T02:08:23;8.90;99.90
46159;DHT22;31888;44.512;26.104;2023-04-03T02:10:48;9.00;99.90
46159;DHT22;31888;44.512;26.104;2023-04-03T02:13:13;8.90;99.90
46159;DHT22;31888;44.512;26.104;2023-04-03T02:15:38;9.00;99.90
46159;DHT22;31888;44.512;26.104;2023-04-03T02:18:03;9.00;99.90
46159;DHT22;31888;44.512;26.104;2023-04-03T02:20:29;9.00;99.90
46159;DHT22;31888;44.512;26.104;2023-04-03T02:22:55;8.90;99.90
46159;DHT22;31888;44.512;26.104;2023-04-03T02:25:20;9.00;99.90
46159;DHT22;31888;44.512;26.104;2023-04-03T02:27:46;9.10;99.90
46159;DHT22;31888;44.512;26.104;2023-04-03T02:30:11;9.10;99.90
46159;DHT22;31888;44.512;26.104;2023-04-03T02:32:38;9.10;99.90
46159;DHT22;31888;44.512;26.104;2023-04-03T02:35:04;9.10;99.90
46159;DHT22;31888;44.512;26.104;2023-04-03T02:37:30;9.00;99.90
46159;DHT22;31888;44.512;26.104;2023-04-03T02:39:56;8.90;99.90
46159;DHT22;31888;44.512;26.104;2023-04-03T02:42:20;8.70;99.90
46159;DHT22;31888;44.512;26.104;2023-04-03T02:44:47;8.60;99.90
46159;DHT22;31888;44.512;26.104;2023-04-03T02:47:11;8.50;99.90
46159;DHT22;31888;44.512;26.104;2023-04-03T02:49:36;8.30;99.90
46159;DHT22;31888;44.512;26.104;2023-04-03T02:52:00;8.30;99.90
46159;DHT22;31888;44.512;26.104;2023-04-03T02:54:25;8.30;99.90
46159;DHT22;31888;44.512;26.104;2023-04-03T02:56:55;8.40;99.90
46159;DHT22;31888;44.512;26.104;2023-04-03T02:59:20;8.40;99.90
46159;DHT22;31888;44.512;26.104;2023-04-03T03:01:44;8.50;99.90
46159;DHT22;31888;44.512;26.104;2023-04-03T03:04:09;8.40;99.90
46159;DHT22;31888;44.512;26.104;2023-04-03T03:06:34;8.30;99.90
46159;DHT22;31888;44.512;26.104;2023-04-03T03:08:59;8.30;99.90
46159;DHT22;31888;44.512;26.104;2023-04-03T03:11:23;8.30;99.90
46159;DHT22;31888;44.512;26.104;2023-04-03T03:13:49;8.30;99.90
46159;DHT22;31888;44.512;26.104;2023-04-03T03:16:14;8.30;99.90
46159;DHT22;31888;44.512;26.104;2023-04-03T03:18:39;8.20;99.90
46159;DHT22;31888;44.512;26.104;2023-04-03T03:21:04;8.20;99.90
46159;DHT22;31888;44.512;26.104;2023-04-03T03:23:31;8.10;99.90
46159;DHT22;31888;44.512;26.104;2023-04-03T03:25:56;8.20;99.90
46159;DHT22;31888;44.512;26.104;2023-04-03T03:28:22;8.20;99.90
46159;DHT22;31888;44.512;26.104;2023-04-03T03:30:48;8.20;99.90
46159;DHT22;31888;44.512;26.104;2023-04-03T03:33:14;8.10;99.90
46159;DHT22;31888;44.512;26.104;2023-04-03T03:35:40;8.10;99.90
46159;DHT22;31888;44.512;26.104;2023-04-03T03:38:05;8.10;99.90
46159;DHT22;31888;44.512;26.104;2023-04-03T03:40:29;8.10;99.90
46159;DHT22;31888;44.512;26.104;2023-04-03T03:42:54;8.10;99.90
46159;DHT22;31888;44.512;26.104;2023-04-03T03:45:18;8.10;99.90
46159;DHT22;31888;44.512;26.104;2023-04-03T03:47:44;8.10;99.90
46159;DHT22;31888;44.512;26.104;2023-04-03T03:50:10;8.10;99.90
46159;DHT22;31888;44.512;26.104;2023-04-03T03:52:37;8.10;99.90
46159;DHT22;31888;44.512;26.104;2023-04-03T03:55:02;8.10;99.90
46159;DHT22;31888;44.512;26.104;2023-04-03T03:57:31;8.10;99.90
46159;DHT22;31888;44.512;26.104;2023-04-03T03:59:57;8.10;99.90
46159;DHT22;31888;44.512;26.104;2023-04-03T04:02:22;8.20;99.90
46159;DHT22;31888;44.512;26.104;2023-04-03T04:04:50;8.20;99.90
46159;DHT22;31888;44.512;26.104;2023-04-03T04:07:17;8.30;99.90
46159;DHT22;31888;44.512;26.104;2023-04-03T04:09:42;8.30;99.90
46159;DHT22;31888;44.512;26.104;2023-04-03T04:12:09;8.30;99.90
46159;DHT22;31888;44.512;26.104;2023-04-03T04:14:36;8.30;99.90
46159;DHT22;31888;44.512;26.104;2023-04-03T04:17:03;8.30;99.90
46159;DHT22;31888;44.512;26.104;2023-04-03T04:19:29;8.30;99.90
46159;DHT22;31888;44.512;26.104;2023-04-03T04:21:55;8.40;99.90
46159;DHT22;31888;44.512;26.104;2023-04-03T04:24:20;8.40;99.90
46159;DHT22;31888;44.512;26.104;2023-04-03T04:26:48;8.50;99.90
46159;DHT22;31888;44.512;26.104;2023-04-03T04:29:24;8.50;99.90
46159;DHT22;31888;44.512;26.104;2023-04-03T04:31:50;8.60;99.90
46159;DHT22;31888;44.512;26.104;2023-04-03T04:34:16;8.60;99.90
46159;DHT22;31888;44.512;26.104;2023-04-03T04:36:41;8.50;99.90
46159;DHT22;31888;44.512;26.104;2023-04-03T04:39:12;8.50;99.90
46159;DHT22;31888;44.512;26.104;2023-04-03T04:41:37;8.50;99.90
46159;DHT22;31888;44.512;26.104;2023-04-03T04:44:02;8.50;99.90
46159;DHT22;31888;44.512;26.104;2023-04-03T04:46:28;8.50;99.90
46159;DHT22;31888;44.512;26.104;2023-04-03T04:48:54;8.50;99.90
46159;DHT22;31888;44.512;26.104;2023-04-03T04:51:22;8.50;99.90
46159;DHT22;31888;44.512;26.104;2023-04-03T04:53:47;8.50;99.90
46159;DHT22;31888;44.512;26.104;2023-04-03T04:56:15;8.50;99.90
46159;DHT22;31888;44.512;26.104;2023-04-03T04:58:39;8.40;99.90
46159;DHT22;31888;44.512;26.104;2023-04-03T05:01:06;8.40;99.90
46159;DHT22;31888;44.512;26.104;2023-04-03T05:03:35;8.50;99.90
46159;DHT22;31888;44.512;26.104;2023-04-03T05:06:01;8.50;99.90
46159;DHT22;31888;44.512;26.104;2023-04-03T05:08:27;8.50;99.90
46159;DHT22;31888;44.512;26.104;2023-04-03T05:10:53;8.60;99.90
46159;DHT22;31888;44.512;26.104;2023-04-03T05:13:22;8.50;99.90
46159;DHT22;31888;44.512;26.104;2023-04-03T05:15:46;8.60;99.90
46159;DHT22;31888;44.512;26.104;2023-04-03T05:18:11;8.70;99.90
46159;DHT22;31888;44.512;26.104;2023-04-03T05:20:36;8.80;99.90
46159;DHT22;31888;44.512;26.104;2023-04-03T05:23:01;8.90;99.90
46159;DHT22;31888;44.512;26.104;2023-04-03T05:25:29;9.00;99.90
46159;DHT22;31888;44.512;26.104;2023-04-03T05:27:54;9.20;99.90
46159;DHT22;31888;44.512;26.104;2023-04-03T05:30:21;9.50;99.90
46159;DHT22;31888;44.512;26.104;2023-04-03T05:32:45;10.00;99.90
46159;DHT22;31888;44.512;26.104;2023-04-03T05:35:15;10.40;99.90
46159;DHT22;31888;44.512;26.104;2023-04-03T05:37:42;10.90;99.90
46159;DHT22;31888;44.512;26.104;2023-04-03T05:40:08;11.30;99.90
46159;DHT22;31888;44.512;26.104;2023-04-03T05:42:36;11.60;99.90
46159;DHT22;31888;44.512;26.104;2023-04-03T05:45:01;11.70;99.90
46159;DHT22;31888;44.512;26.104;2023-04-03T05:47:30;12.00;99.90
46159;DHT22;31888;44.512;26.104;2023-04-03T05:49:55;12.10;99.90
46159;DHT22;31888;44.512;26.104;2023-04-03T05:52:22;12.10;99.90
46159;DHT22;31888;44.512;26.104;2023-04-03T05:54:47;12.40;99.90
46159;DHT22;31888;44.512;26.104;2023-04-03T05:57:19;12.60;99.90
46159;DHT22;31888;44.512;26.104;2023-04-03T05:59:44;12.60;99.90
46159;DHT22;31888;44.512;26.104;2023-04-03T06:02:11;12.70;99.90
46159;DHT22;31888;44.512;26.104;2023-04-03T06:04:37;12.90;99.90
46159;DHT22;31888;44.512;26.104;2023-04-03T06:07:02;13.50;99.90
46159;DHT22;31888;44.512;26.104;2023-04-03T06:09:27;13.70;99.90
46159;DHT22;31888;44.512;26.104;2023-04-03T06:11:54;13.80;99.90
46159;DHT22;31888;44.512;26.104;2023-04-03T06:14:22;14.00;99.90
46159;DHT22;31888;44.512;26.104;2023-04-03T06:16:47;14.00;99.90
46159;DHT22;31888;44.512;26.104;2023-04-03T06:19:12;14.10;99.90
46159;DHT22;31888;44.512;26.104;2023-04-03T06:21:43;14.30;99.90
46159;DHT22;31888;44.512;26.104;2023-04-03T06:24:08;14.60;99.90
46159;DHT22;31888;44.512;26.104;2023-04-03T06:26:33;14.30;99.90
46159;DHT22;31888;44.512;26.104;2023-04-03T06:28:59;14.30;99.90
46159;DHT22;31888;44.512;26.104;2023-04-03T06:31:23;13.70;99.90
46159;DHT22;31888;44.512;26.104;2023-04-03T06:33:48;13.50;99.90
46159;DHT22;31888;44.512;26.104;2023-04-03T06:36:13;13.10;99.90
46159;DHT22;31888;44.512;26.104;2023-04-03T06:38:44;13.20;99.90
46159;DHT22;31888;44.512;26.104;2023-04-03T06:41:08;13.20;99.90
46159;DHT22;31888;44.512;26.104;2023-04-03T06:43:33;13.50;99.90
46159;DHT22;31888;44.512;26.104;2023-04-03T06:45:58;13.70;99.90
46159;DHT22;31888;44.512;26.104;2023-04-03T06:48:22;13.50;99.90
46159;DHT22;31888;44.512;26.104;2023-04-03T06:50:47;13.60;99.90
46159;DHT22;31888;44.512;26.104;2023-04-03T06:53:11;13.60;99.90
46159;DHT22;31888;44.512;26.104;2023-04-03T06:55:37;13.50;99.90
46159;DHT22;31888;44.512;26.104;2023-04-03T06:58:05;13.10;99.90
46159;DHT22;31888;44.512;26.104;2023-04-03T07:00:30;12.80;99.90
46159;DHT22;31888;44.512;26.104;2023-04-03T07:02:54;12.50;99.90
46159;DHT22;31888;44.512;26.104;2023-04-03T07:05:22;12.40;99.90
46159;DHT22;31888;44.512;26.104;2023-04-03T07:07:46;12.40;99.90
46159;DHT22;31888;44.512;26.104;2023-04-03T07:10:12;12.20;99.90
46159;DHT22;31888;44.512;26.104;2023-04-03T07:12:39;12.20;99.90
46159;DHT22;31888;44.512;26.104;2023-04-03T07:15:06;12.20;99.90
46159;DHT22;31888;44.512;26.104;2023-04-03T07:17:34;12.30;99.90
46159;DHT22;31888;44.512;26.104;2023-04-03T07:19:59;12.10;99.90
46159;DHT22;31888;44.512;26.104;2023-04-03T07:22:26;12.30;99.90
46159;DHT22;31888;44.512;26.104;2023-04-03T07:24:51;12.30;99.90
46159;DHT22;31888;44.512;26.104;2023-04-03T07:27:19;12.40;99.90
46159;DHT22;31888;44.512;26.104;2023-04-03T07:29:45;12.50;99.90
46159;DHT22;31888;44.512;26.104;2023-04-03T07:32:11;12.50;99.90
46159;DHT22;31888;44.512;26.104;2023-04-03T07:34:36;12.80;99.90
46159;DHT22;31888;44.512;26.104;2023-04-03T07:37:02;13.20;99.90
46159;DHT22;31888;44.512;26.104;2023-04-03T07:39:27;13.50;99.90
46159;DHT22;31888;44.512;26.104;2023-04-03T07:41:52;13.60;99.90
46159;DHT22;31888;44.512;26.104;2023-04-03T07:44:21;13.70;99.90
46159;DHT22;31888;44.512;26.104;2023-04-03T07:46:48;13.70;99.90
46159;DHT22;31888;44.512;26.104;2023-04-03T07:49:13;13.70;99.90
46159;DHT22;31888;44.512;26.104;2023-04-03T07:51:39;13.70;99.90
46159;DHT22;31888;44.512;26.104;2023-04-03T07:54:05;13.60;99.90
46159;DHT22;31888;44.512;26.104;2023-04-03T07:56:30;13.50;99.90
46159;DHT22;31888;44.512;26.104;2023-04-03T07:58:55;13.40;99.90
46159;DHT22;31888;44.512;26.104;2023-04-03T08:01:20;13.30;99.90
46159;DHT22;31888;44.512;26.104;2023-04-03T08:03:47;13.20;99.90
46159;DHT22;31888;44.512;26.104;2023-04-03T08:06:13;13.20;99.90
46159;DHT22;31888;44.512;26.104;2023-04-03T08:08:42;13.20;99.90
46159;DHT22;31888;44.512;26.104;2023-04-03T08:11:07;13.20;99.90
46159;DHT22;31888;44.512;26.104;2023-04-03T08:13:32;13.20;99.90
46159;DHT22;31888;44.512;26.104;2023-04-03T08:15:58;13.30;99.90
46159;DHT22;31888;44.512;26.104;2023-04-03T08:18:31;13.70;99.90
46159;DHT22;31888;44.512;26.104;2023-04-03T08:20:57;13.80;99.90
46159;DHT22;31888;44.512;26.104;2023-04-03T08:23:22;14.10;99.90
46159;DHT22;31888;44.512;26.104;2023-04-03T08:25:47;14.30;99.90
46159;DHT22;31888;44.512;26.104;2023-04-03T08:28:14;14.40;99.90
46159;DHT22;31888;44.512;26.104;2023-04-03T08:30:42;14.30;99.90
46159;DHT22;31888;44.512;26.104;2023-04-03T08:33:09;14.40;99.90
46159;DHT22;31888;44.512;26.104;2023-04-03T08:35:38;14.60;99.50
46159;DHT22;31888;44.512;26.104;2023-04-03T08:38:06;15.00;99.10
46159;DHT22;31888;44.512;26.104;2023-04-03T08:40:31;14.90;99.00
46159;DHT22;31888;44.512;26.104;2023-04-03T08:43:04;14.90;99.30
46159;DHT22;31888;44.512;26.104;2023-04-03T08:45:41;14.70;99.50
46159;DHT22;31888;44.512;26.104;2023-04-03T08:48:12;14.50;99.90
46159;DHT22;31888;44.512;26.104;2023-04-03T08:50:41;14.60;99.90
46159;DHT22;31888;44.512;26.104;2023-04-03T08:53:14;14.70;99.80
46159;DHT22;31888;44.512;26.104;2023-04-03T08:55:42;14.70;99.90
46159;DHT22;31888;44.512;26.104;2023-04-03T08:58:12;14.60;99.20
46159;DHT22;31888;44.512;26.104;2023-04-03T09:00:44;14.50;99.90
46159;DHT22;31888;44.512;26.104;2023-04-03T09:03:13;14.50;99.90
46159;DHT22;31888;44.512;26.104;2023-04-03T09:05:43;14.30;99.90
46159;DHT22;31888;44.512;26.104;2023-04-03T09:08:24;14.20;99.90
46159;DHT22;31888;44.512;26.104;2023-04-03T09:10:58;14.10;99.90
46159;DHT22;31888;44.512;26.104;2023-04-03T09:13:28;14.00;99.90
46159;DHT22;31888;44.512;26.104;2023-04-03T09:15:56;14.20;99.90
46159;DHT22;31888;44.512;26.104;2023-04-03T09:18:26;14.10;99.90
46159;DHT22;31888;44.512;26.104;2023-04-03T09:20:57;14.00;99.90
46159;DHT22;31888;44.512;26.104;2023-04-03T09:23:29;14.10;99.90
46159;DHT22;31888;44.512;26.104;2023-04-03T09:26:02;14.30;99.90
46159;DHT22;31888;44.512;26.104;2023-04-03T09:28:32;14.40;99.90
46159;DHT22;31888;44.512;26.104;2023-04-03T09:31:20;14.40;99.90
46159;DHT22;31888;44.512;26.104;2023-04-03T09:33:46;14.10;99.90
46159;DHT22;31888;44.512;26.104;2023-04-03T09:36:12;14.30;99.90
46159;DHT22;31888;44.512;26.104;2023-04-03T09:38:38;14.40;99.90
46159;DHT22;31888;44.512;26.104;2023-04-03T09:41:05;14.40;99.90
46159;DHT22;31888;44.512;26.104;2023-04-03T09:43:37;14.20;99.90
46159;DHT22;31888;44.512;26.104;2023-04-03T09:46:25;14.10;99.90
46159;DHT22;31888;44.512;26.104;2023-04-03T09:48:58;14.40;99.90
46159;DHT22;31888;44.512;26.104;2023-04-03T09:51:32;14.40;99.90
46159;DHT22;31888;44.512;26.104;2023-04-03T09:54:24;14.40;99.90
46159;DHT22;31888;44.512;26.104;2023-04-03T09:56:50;14.60;99.90
46159;DHT22;31888;44.512;26.104;2023-04-03T09:59:17;14.60;99.90
46159;DHT22;31888;44.512;26.104;2023-04-03T10:01:57;14.50;99.90
46159;DHT22;31888;44.512;26.104;2023-04-03T10:04:22;14.50;99.90
46159;DHT22;31888;44.512;26.104;2023-04-03T10:06:49;14.50;99.90
46159;DHT22;31888;44.512;26.104;2023-04-03T10:09:21;14.50;99.90
46159;DHT22;31888;44.512;26.104;2023-04-03T10:12:01;14.60;99.90
46159;DHT22;31888;44.512;26.104;2023-04-03T10:14:34;14.90;99.90
46159;DHT22;31888;44.512;26.104;2023-04-03T10:17:14;15.10;99.50
46159;DHT22;31888;44.512;26.104;2023-04-03T10:19:47;15.10;98.90
46159;DHT22;31888;44.512;26.104;2023-04-03T10:22:36;14.80;99.00
46159;DHT22;31888;44.512;26.104;2023-04-03T10:25:17;14.50;99.90
46159;DHT22;31888;44.512;26.104;2023-04-03T10:27:55;14.50;99.90
46159;DHT22;31888;44.512;26.104;2023-04-03T10:30:32;14.70;99.90
46159;DHT22;31888;44.512;26.104;2023-04-03T10:33:09;14.90;99.80
46159;DHT22;31888;44.512;26.104;2023-04-03T10:35:47;14.70;99.80
46159;DHT22;31888;44.512;26.104;2023-04-03T10:38:24;14.70;99.70
46159;DHT22;31888;44.512;26.104;2023-04-03T10:41:01;14.90;99.60
46159;DHT22;31888;44.512;26.104;2023-04-03T10:43:35;14.90;99.90
46159;DHT22;31888;44.512;26.104;2023-04-03T10:46:03;14.80;99.40
46159;DHT22;31888;44.512;26.104;2023-04-03T10:48:38;14.80;99.60
46159;DHT22;31888;44.512;26.104;2023-04-03T10:51:12;14.70;99.90
46159;DHT22;31888;44.512;26.104;2023-04-03T10:53:44;14.70;99.50
46159;DHT22;31888;44.512;26.104;2023-04-03T10:56:12;14.70;99.90
46159;DHT22;31888;44.512;26.104;2023-04-03T10:58:40;14.80;99.90
46159;DHT22;31888;44.512;26.104;2023-04-03T11:01:09;14.90;99.90
46159;DHT22;31888;44.512;26.104;2023-04-03T11:03:39;14.90;99.90
46159;DHT22;31888;44.512;26.104;2023-04-03T11:06:08;14.50;99.90
46159;DHT22;31888;44.512;26.104;2023-04-03T11:08:39;14.50;99.90
46159;DHT22;31888;44.512;26.104;2023-04-03T11:11:11;14.60;99.90
46159;DHT22;31888;44.512;26.104;2023-04-03T11:13:41;14.50;99.90
46159;DHT22;31888;44.512;26.104;2023-04-03T11:16:08;14.50;99.90
46159;DHT22;31888;44.512;26.104;2023-04-03T11:18:39;14.60;99.90
46159;DHT22;31888;44.512;26.104;2023-04-03T11:21:09;14.40;99.90
46159;DHT22;31888;44.512;26.104;2023-04-03T11:23:37;14.40;99.90
46159;DHT22;31888;44.512;26.104;2023-04-03T11:26:15;14.40;99.90
46159;DHT22;31888;44.512;26.104;2023-04-03T11:28:41;14.50;99.90
46159;DHT22;31888;44.512;26.104;2023-04-03T11:31:15;14.60;99.90
46159;DHT22;31888;44.512;26.104;2023-04-03T11:33:51;14.60;99.90
46159;DHT22;31888;44.512;26.104;2023-04-03T11:36:23;14.70;99.90
46159;DHT22;31888;44.512;26.104;2023-04-03T11:38:58;14.70;99.90
46159;DHT22;31888;44.512;26.104;2023-04-03T11:41:28;14.80;99.90
46159;DHT22;31888;44.512;26.104;2023-04-03T11:44:00;14.80;99.80
46159;DHT22;31888;44.512;26.104;2023-04-03T11:46:51;14.80;99.90
46159;DHT22;31888;44.512;26.104;2023-04-03T11:49:51;14.80;99.50
46159;DHT22;31888;44.512;26.104;2023-04-03T11:55:52;14.60;99.90
46159;DHT22;31888;44.512;26.104;2023-04-03T11:58:27;14.80;99.90
46159;DHT22;31888;44.512;26.104;2023-04-03T12:01:05;14.80;99.90
46159;DHT22;31888;44.512;26.104;2023-04-03T12:09:56;15.00;99.90
46159;DHT22;31888;44.512;26.104;2023-04-03T12:12:35;15.00;99.90
46159;DHT22;31888;44.512;26.104;2023-04-03T12:21:18;14.90;99.90
46159;DHT22;31888;44.512;26.104;2023-04-03T12:24:00;14.90;99.90
46159;DHT22;31888;44.512;26.104;2023-04-03T12:26:31;14.90;99.90
46159;DHT22;31888;44.512;26.104;2023-04-03T12:29:15;14.80;99.90
46159;DHT22;31888;44.512;26.104;2023-04-03T12:31:46;14.70;99.90
46159;DHT22;31888;44.512;26.104;2023-04-03T12:34:15;14.60;99.90
46159;DHT22;31888;44.512;26.104;2023-04-03T12:36:50;14.60;99.90
46159;DHT22;31888;44.512;26.104;2023-04-03T12:39:33;14.60;99.90
46159;DHT22;31888;44.512;26.104;2023-04-03T12:42:08;14.70;99.90
46159;DHT22;31888;44.512;26.104;2023-04-03T12:44:44;14.80;99.90
46159;DHT22;31888;44.512;26.104;2023-04-03T12:47:25;14.90;99.90
46159;DHT22;31888;44.512;26.104;2023-04-03T12:49:50;14.90;99.90
46159;DHT22;31888;44.512;26.104;2023-04-03T12:52:30;14.80;99.90
46159;DHT22;31888;44.512;26.104;2023-04-03T12:54:56;14.80;99.90
46159;DHT22;31888;44.512;26.104;2023-04-03T12:57:26;14.70;99.90
46159;DHT22;31888;44.512;26.104;2023-04-03T12:59:52;14.70;99.90
46159;DHT22;31888;44.512;26.104;2023-04-03T13:02:26;14.70;99.90
46159;DHT22;31888;44.512;26.104;2023-04-03T13:04:54;14.70;99.90
46159;DHT22;31888;44.512;26.104;2023-04-03T13:07:28;14.60;99.90
46159;DHT22;31888;44.512;26.104;2023-04-03T13:09:58;14.70;99.90
46159;DHT22;31888;44.512;26.104;2023-04-03T13:12:25;14.70;99.90
46159;DHT22;31888;44.512;26.104;2023-04-03T13:14:52;14.80;99.90
46159;DHT22;31888;44.512;26.104;2023-04-03T13:17:18;14.90;99.90
46159;DHT22;31888;44.512;26.104;2023-04-03T13:19:45;15.00;99.40
46159;DHT22;31888;44.512;26.104;2023-04-03T13:22:28;14.90;99.40
46159;DHT22;31888;44.512;26.104;2023-04-03T13:24:59;15.00;99.70
46159;DHT22;31888;44.512;26.104;2023-04-03T13:27:26;14.80;99.80
46159;DHT22;31888;44.512;26.104;2023-04-03T13:29:53;14.70;99.90
46159;DHT22;31888;44.512;26.104;2023-04-03T13:32:27;14.60;99.90
46159;DHT22;31888;44.512;26.104;2023-04-03T13:34:53;14.60;99.90
46159;DHT22;31888;44.512;26.104;2023-04-03T13:37:31;14.60;99.90
46159;DHT22;31888;44.512;26.104;2023-04-03T13:40:10;14.60;99.90
46159;DHT22;31888;44.512;26.104;2023-04-03T13:42:40;14.70;99.90
46159;DHT22;31888;44.512;26.104;2023-04-03T13:45:19;14.70;99.90
46159;DHT22;31888;44.512;26.104;2023-04-03T13:47:46;14.70;99.90
46159;DHT22;31888;44.512;26.104;2023-04-03T13:50:18;14.70;99.90
46159;DHT22;31888;44.512;26.104;2023-04-03T13:52:47;14.60;99.90
46159;DHT22;31888;44.512;26.104;2023-04-03T13:55:19;14.60;99.90
46159;DHT22;31888;44.512;26.104;2023-04-03T13:58:02;14.60;99.70
46159;DHT22;31888;44.512;26.104;2023-04-03T14:00:35;14.50;99.30
46159;DHT22;31888;44.512;26.104;2023-04-03T14:03:01;14.50;99.30
46159;DHT22;31888;44.512;26.104;2023-04-03T14:05:26;14.50;99.40
46159;DHT22;31888;44.512;26.104;2023-04-03T14:07:54;14.50;99.60
46159;DHT22;31888;44.512;26.104;2023-04-03T14:10:19;14.60;99.90
46159;DHT22;31888;44.512;26.104;2023-04-03T14:12:44;14.60;99.90
46159;DHT22;31888;44.512;26.104;2023-04-03T14:15:16;14.50;99.40
46159;DHT22;31888;44.512;26.104;2023-04-03T14:17:44;14.50;99.90
46159;DHT22;31888;44.512;26.104;2023-04-03T14:20:15;14.40;99.90
46159;DHT22;31888;44.512;26.104;2023-04-03T14:22:40;14.40;99.90
46159;DHT22;31888;44.512;26.104;2023-04-03T14:25:07;14.50;99.90
46159;DHT22;31888;44.512;26.104;2023-04-03T14:27:35;14.50;99.90
46159;DHT22;31888;44.512;26.104;2023-04-03T14:30:01;14.50;99.90
46159;DHT22;31888;44.512;26.104;2023-04-03T14:32:27;14.40;99.90
46159;DHT22;31888;44.512;26.104;2023-04-03T14:34:52;14.30;99.90
46159;DHT22;31888;44.512;26.104;2023-04-03T14:37:20;14.30;99.90
46159;DHT22;31888;44.512;26.104;2023-04-03T14:39:45;14.30;99.90
46159;DHT22;31888;44.512;26.104;2023-04-03T14:42:15;14.30;99.90
46159;DHT22;31888;44.512;26.104;2023-04-03T14:44:42;14.30;99.90
46159;DHT22;31888;44.512;26.104;2023-04-03T14:47:10;14.30;99.90
46159;DHT22;31888;44.512;26.104;2023-04-03T14:49:52;14.30;99.90
46159;DHT22;31888;44.512;26.104;2023-04-03T14:52:21;14.30;99.90
46159;DHT22;31888;44.512;26.104;2023-04-03T14:54:47;14.40;99.90
46159;DHT22;31888;44.512;26.104;2023-04-03T14:57:14;14.30;99.90
46159;DHT22;31888;44.512;26.104;2023-04-03T14:59:42;14.20;99.90
46159;DHT22;31888;44.512;26.104;2023-04-03T15:02:25;14.20;99.90
46159;DHT22;31888;44.512;26.104;2023-04-03T15:04:51;14.10;99.90
46159;DHT22;31888;44.512;26.104;2023-04-03T15:07:15;14.10;99.90
46159;DHT22;31888;44.512;26.104;2023-04-03T15:09:40;14.00;99.90
46159;DHT22;31888;44.512;26.104;2023-04-03T15:12:05;14.00;99.90
46159;DHT22;31888;44.512;26.104;2023-04-03T15:14:31;13.90;99.90
46159;DHT22;31888;44.512;26.104;2023-04-03T15:17:14;14.00;99.90
46159;DHT22;31888;44.512;26.104;2023-04-03T15:19:39;13.90;99.90
46159;DHT22;31888;44.512;26.104;2023-04-03T15:22:04;14.00;99.90
46159;DHT22;31888;44.512;26.104;2023-04-03T15:24:29;14.00;99.90
46159;DHT22;31888;44.512;26.104;2023-04-03T15:26:53;13.90;99.90
46159;DHT22;31888;44.512;26.104;2023-04-03T15:29:18;13.80;99.90
46159;DHT22;31888;44.512;26.104;2023-04-03T15:31:44;13.80;99.90
46159;DHT22;31888;44.512;26.104;2023-04-03T15:34:08;13.70;99.90
46159;DHT22;31888;44.512;26.104;2023-04-03T15:36:33;13.70;99.90
46159;DHT22;31888;44.512;26.104;2023-04-03T15:38:57;13.70;99.90
46159;DHT22;31888;44.512;26.104;2023-04-03T15:41:22;13.70;99.90
46159;DHT22;31888;44.512;26.104;2023-04-03T15:43:47;13.60;99.90
46159;DHT22;31888;44.512;26.104;2023-04-03T15:46:12;13.60;99.90